sensor_id;sensor_type;location;lat;lon;timestamp;P1;durP1;ratioP1;P2;durP2;ratioP2
17818;SDS011;9034;50.284;19.310;2022-07-15T00:00:53;8.18;;;7.35;;
17818;SDS011;9034;50.284;19.310;2022-07-15T00:01:56;8.02;;;6.85;;
17818;SDS011;9034;50.284;19.310;2022-07-15T00:03:01;7.82;;;6.65;;
17818;SDS011;9034;50.284;19.310;2022-07-15T00:04:05;6.70;;;6.10;;
17818;SDS011;9034;50.284;19.310;2022-07-15T00:05:08;7.43;;;6.65;;
17818;SDS011;9034;50.284;19.310;2022-07-15T00:06:13;8.10;;;6.22;;
17818;SDS011;9034;50.284;19.310;2022-07-15T00:07:17;7.32;;;6.25;;
17818;SDS011;9034;50.284;19.310;2022-07-15T00:08:27;9.77;;;6.88;;
17818;SDS011;9034;50.284;19.310;2022-07-15T00:09:30;7.93;;;7.10;;
17818;SDS011;9034;50.284;19.310;2022-07-15T00:10:52;7.55;;;6.35;;
17818;SDS011;9034;50.284;19.310;2022-07-15T00:11:57;8.55;;;6.13;;
17818;SDS011;9034;50.284;19.310;2022-07-15T00:13:01;8.85;;;6.18;;
17818;SDS011;9034;50.284;19.310;2022-07-15T00:14:06;8.05;;;6.28;;
17818;SDS011;9034;50.284;19.310;2022-07-15T00:15:10;9.55;;;6.45;;
17818;SDS011;9034;50.284;19.310;2022-07-15T00:16:14;7.35;;;6.45;;
17818;SDS011;9034;50.284;19.310;2022-07-15T00:17:17;7.68;;;6.43;;
17818;SDS011;9034;50.284;19.310;2022-07-15T00:18:21;7.60;;;6.55;;
17818;SDS011;9034;50.284;19.310;2022-07-15T00:19:26;8.35;;;6.57;;
17818;SDS011;9034;50.284;19.310;2022-07-15T00:20:29;8.18;;;6.90;;
17818;SDS011;9034;50.284;19.310;2022-07-15T00:21:36;8.57;;;6.55;;
17818;SDS011;9034;50.284;19.310;2022-07-15T00:22:39;8.80;;;6.75;;
17818;SDS011;9034;50.284;19.310;2022-07-15T00:23:44;7.45;;;6.65;;
17818;SDS011;9034;50.284;19.310;2022-07-15T00:24:47;8.18;;;6.43;;
17818;SDS011;9034;50.284;19.310;2022-07-15T00:25:52;10.45;;;7.47;;
17818;SDS011;9034;50.284;19.310;2022-07-15T00:26:55;10.15;;;7.15;;
17818;SDS011;9034;50.284;19.310;2022-07-15T00:28:00;9.85;;;7.88;;
17818;SDS011;9034;50.284;19.310;2022-07-15T00:29:06;10.00;;;7.38;;
17818;SDS011;9034;50.284;19.310;2022-07-15T00:30:11;9.65;;;7.60;;
17818;SDS011;9034;50.284;19.310;2022-07-15T00:31:14;9.02;;;8.13;;
17818;SDS011;9034;50.284;19.310;2022-07-15T00:32:19;10.65;;;7.68;;
17818;SDS011;9034;50.284;19.310;2022-07-15T00:33:22;10.80;;;8.35;;
17818;SDS011;9034;50.284;19.310;2022-07-15T00:34:26;10.77;;;8.40;;
17818;SDS011;9034;50.284;19.310;2022-07-15T00:35:30;11.15;;;8.07;;
17818;SDS011;9034;50.284;19.310;2022-07-15T00:36:35;10.07;;;8.50;;
17818;SDS011;9034;50.284;19.310;2022-07-15T00:37:39;12.88;;;8.35;;
17818;SDS011;9034;50.284;19.310;2022-07-15T00:38:43;8.77;;;7.88;;
17818;SDS011;9034;50.284;19.310;2022-07-15T00:39:46;12.68;;;7.82;;
17818;SDS011;9034;50.284;19.310;2022-07-15T00:40:50;10.50;;;8.52;;
17818;SDS011;9034;50.284;19.310;2022-07-15T00:41:54;8.75;;;7.85;;
17818;SDS011;9034;50.284;19.310;2022-07-15T00:42:58;10.10;;;8.32;;
17818;SDS011;9034;50.284;19.310;2022-07-15T00:44:01;9.73;;;8.60;;
17818;SDS011;9034;50.284;19.310;2022-07-15T00:45:08;10.77;;;7.68;;
17818;SDS011;9034;50.284;19.310;2022-07-15T00:46:13;11.63;;;7.82;;
17818;SDS011;9034;50.284;19.310;2022-07-15T00:47:19;11.10;;;7.78;;
17818;SDS011;9034;50.284;19.310;2022-07-15T00:48:22;9.57;;;8.18;;
17818;SDS011;9034;50.284;19.310;2022-07-15T00:49:26;12.88;;;8.90;;
17818;SDS011;9034;50.284;19.310;2022-07-15T00:50:30;9.38;;;8.45;;
17818;SDS011;9034;50.284;19.310;2022-07-15T00:51:35;13.40;;;8.60;;
17818;SDS011;9034;50.284;19.310;2022-07-15T00:52:40;10.40;;;8.73;;
17818;SDS011;9034;50.284;19.310;2022-07-15T00:53:45;13.43;;;8.77;;
17818;SDS011;9034;50.284;19.310;2022-07-15T00:54:49;10.70;;;8.38;;
17818;SDS011;9034;50.284;19.310;2022-07-15T00:55:57;9.82;;;8.82;;
17818;SDS011;9034;50.284;19.310;2022-07-15T00:57:03;12.10;;;8.70;;
17818;SDS011;9034;50.284;19.310;2022-07-15T00:58:08;9.80;;;8.80;;
17818;SDS011;9034;50.284;19.310;2022-07-15T00:59:15;9.98;;;7.70;;
17818;SDS011;9034;50.284;19.310;2022-07-15T01:00:21;11.45;;;9.18;;
17818;SDS011;9034;50.284;19.310;2022-07-15T01:01:26;9.77;;;8.40;;
17818;SDS011;9034;50.284;19.310;2022-07-15T01:02:29;11.43;;;9.05;;
17818;SDS011;9034;50.284;19.310;2022-07-15T01:03:34;12.85;;;9.07;;
17818;SDS011;9034;50.284;19.310;2022-07-15T01:04:37;12.55;;;8.80;;
17818;SDS011;9034;50.284;19.310;2022-07-15T01:05:41;11.02;;;8.70;;
17818;SDS011;9034;50.284;19.310;2022-07-15T01:06:45;13.02;;;9.15;;
17818;SDS011;9034;50.284;19.310;2022-07-15T01:07:49;12.55;;;9.57;;
17818;SDS011;9034;50.284;19.310;2022-07-15T01:08:53;11.70;;;9.52;;
17818;SDS011;9034;50.284;19.310;2022-07-15T01:09:57;12.52;;;9.88;;
17818;SDS011;9034;50.284;19.310;2022-07-15T01:11:00;14.15;;;10.23;;
17818;SDS011;9034;50.284;19.310;2022-07-15T01:12:05;16.17;;;9.70;;
17818;SDS011;9034;50.284;19.310;2022-07-15T01:13:09;13.25;;;9.93;;
17818;SDS011;9034;50.284;19.310;2022-07-15T01:14:13;12.50;;;10.38;;
17818;SDS011;9034;50.284;19.310;2022-07-15T01:15:17;17.35;;;11.45;;
17818;SDS011;9034;50.284;19.310;2022-07-15T01:16:23;15.88;;;10.50;;
17818;SDS011;9034;50.284;19.310;2022-07-15T01:17:27;12.20;;;10.35;;
17818;SDS011;9034;50.284;19.310;2022-07-15T01:18:37;12.57;;;10.40;;
17818;SDS011;9034;50.284;19.310;2022-07-15T01:19:42;14.40;;;10.93;;
17818;SDS011;9034;50.284;19.310;2022-07-15T01:20:48;13.38;;;10.60;;
17818;SDS011;9034;50.284;19.310;2022-07-15T01:21:52;12.18;;;10.48;;
17818;SDS011;9034;50.284;19.310;2022-07-15T01:22:56;11.93;;;10.40;;
17818;SDS011;9034;50.284;19.310;2022-07-15T01:24:11;15.15;;;10.23;;
17818;SDS011;9034;50.284;19.310;2022-07-15T01:25:21;14.05;;;11.23;;
17818;SDS011;9034;50.284;19.310;2022-07-15T01:26:24;13.73;;;10.73;;
17818;SDS011;9034;50.284;19.310;2022-07-15T01:27:28;16.38;;;11.63;;
17818;SDS011;9034;50.284;19.310;2022-07-15T01:28:32;16.88;;;10.80;;
17818;SDS011;9034;50.284;19.310;2022-07-15T01:29:36;13.00;;;11.20;;
17818;SDS011;9034;50.284;19.310;2022-07-15T01:30:40;16.00;;;10.82;;
17818;SDS011;9034;50.284;19.310;2022-07-15T01:31:48;13.85;;;10.55;;
17818;SDS011;9034;50.284;19.310;2022-07-15T01:32:51;13.07;;;10.32;;
17818;SDS011;9034;50.284;19.310;2022-07-15T01:33:55;12.43;;;10.50;;
17818;SDS011;9034;50.284;19.310;2022-07-15T01:34:58;13.25;;;10.52;;
17818;SDS011;9034;50.284;19.310;2022-07-15T01:36:05;13.50;;;10.63;;
17818;SDS011;9034;50.284;19.310;2022-07-15T01:37:11;14.63;;;10.68;;
17818;SDS011;9034;50.284;19.310;2022-07-15T01:38:18;14.25;;;10.15;;
17818;SDS011;9034;50.284;19.310;2022-07-15T01:39:28;14.18;;;10.93;;
17818;SDS011;9034;50.284;19.310;2022-07-15T01:40:40;13.75;;;11.15;;
17818;SDS011;9034;50.284;19.310;2022-07-15T01:41:45;16.10;;;11.55;;
17818;SDS011;9034;50.284;19.310;2022-07-15T01:42:52;14.20;;;12.13;;
17818;SDS011;9034;50.284;19.310;2022-07-15T01:43:56;13.10;;;11.57;;
17818;SDS011;9034;50.284;19.310;2022-07-15T01:44:59;14.88;;;11.60;;
17818;SDS011;9034;50.284;19.310;2022-07-15T01:46:04;13.95;;;12.20;;
17818;SDS011;9034;50.284;19.310;2022-07-15T01:47:11;14.48;;;11.70;;
17818;SDS011;9034;50.284;19.310;2022-07-15T01:48:14;15.93;;;12.23;;
17818;SDS011;9034;50.284;19.310;2022-07-15T01:49:48;13.68;;;11.43;;
17818;SDS011;9034;50.284;19.310;2022-07-15T01:51:16;21.23;;;13.35;;
17818;SDS011;9034;50.284;19.310;2022-07-15T01:52:19;16.50;;;12.80;;
17818;SDS011;9034;50.284;19.310;2022-07-15T01:53:24;17.42;;;13.35;;
17818;SDS011;9034;50.284;19.310;2022-07-15T01:54:29;16.95;;;12.95;;
17818;SDS011;9034;50.284;19.310;2022-07-15T01:55:37;19.27;;;13.30;;
17818;SDS011;9034;50.284;19.310;2022-07-15T01:56:41;21.38;;;14.38;;
17818;SDS011;9034;50.284;19.310;2022-07-15T01:57:46;19.20;;;13.50;;
17818;SDS011;9034;50.284;19.310;2022-07-15T01:58:49;21.05;;;13.63;;
17818;SDS011;9034;50.284;19.310;2022-07-15T01:59:54;21.92;;;15.00;;
17818;SDS011;9034;50.284;19.310;2022-07-15T02:01:06;19.38;;;14.23;;
17818;SDS011;9034;50.284;19.310;2022-07-15T02:02:11;17.00;;;13.77;;
17818;SDS011;9034;50.284;19.310;2022-07-15T02:03:14;19.35;;;14.90;;
17818;SDS011;9034;50.284;19.310;2022-07-15T02:04:19;21.20;;;14.73;;
17818;SDS011;9034;50.284;19.310;2022-07-15T02:05:22;19.05;;;14.57;;
17818;SDS011;9034;50.284;19.310;2022-07-15T02:06:30;19.90;;;14.85;;
17818;SDS011;9034;50.284;19.310;2022-07-15T02:07:34;22.55;;;15.32;;
17818;SDS011;9034;50.284;19.310;2022-07-15T02:08:39;17.30;;;14.15;;
17818;SDS011;9034;50.284;19.310;2022-07-15T02:09:46;17.60;;;13.52;;
17818;SDS011;9034;50.284;19.310;2022-07-15T02:10:50;18.75;;;14.63;;
17818;SDS011;9034;50.284;19.310;2022-07-15T02:11:54;20.23;;;13.98;;
17818;SDS011;9034;50.284;19.310;2022-07-15T02:13:00;19.42;;;13.35;;
17818;SDS011;9034;50.284;19.310;2022-07-15T02:14:04;20.52;;;14.13;;
17818;SDS011;9034;50.284;19.310;2022-07-15T02:15:09;19.83;;;14.25;;
17818;SDS011;9034;50.284;19.310;2022-07-15T02:16:19;19.55;;;13.68;;
17818;SDS011;9034;50.284;19.310;2022-07-15T02:17:25;18.90;;;13.20;;
17818;SDS011;9034;50.284;19.310;2022-07-15T02:18:28;21.15;;;14.07;;
17818;SDS011;9034;50.284;19.310;2022-07-15T02:19:32;17.45;;;13.98;;
17818;SDS011;9034;50.284;19.310;2022-07-15T02:20:36;17.05;;;13.10;;
17818;SDS011;9034;50.284;19.310;2022-07-15T02:21:42;17.50;;;13.40;;
17818;SDS011;9034;50.284;19.310;2022-07-15T02:22:45;18.23;;;13.02;;
17818;SDS011;9034;50.284;19.310;2022-07-15T02:23:49;21.58;;;13.38;;
17818;SDS011;9034;50.284;19.310;2022-07-15T02:24:52;14.60;;;12.48;;
17818;SDS011;9034;50.284;19.310;2022-07-15T02:25:57;21.05;;;12.68;;
17818;SDS011;9034;50.284;19.310;2022-07-15T02:27:02;15.88;;;13.10;;
17818;SDS011;9034;50.284;19.310;2022-07-15T02:28:06;17.42;;;13.20;;
17818;SDS011;9034;50.284;19.310;2022-07-15T02:29:10;17.73;;;13.35;;
17818;SDS011;9034;50.284;19.310;2022-07-15T02:30:14;17.10;;;12.73;;
17818;SDS011;9034;50.284;19.310;2022-07-15T02:31:17;15.05;;;12.18;;
17818;SDS011;9034;50.284;19.310;2022-07-15T02:32:22;17.23;;;12.65;;
17818;SDS011;9034;50.284;19.310;2022-07-15T02:33:26;21.67;;;13.05;;
17818;SDS011;9034;50.284;19.310;2022-07-15T02:34:29;21.17;;;13.30;;
17818;SDS011;9034;50.284;19.310;2022-07-15T02:35:35;15.15;;;12.38;;
17818;SDS011;9034;50.284;19.310;2022-07-15T02:36:41;19.30;;;13.07;;
17818;SDS011;9034;50.284;19.310;2022-07-15T02:37:46;16.30;;;12.80;;
17818;SDS011;9034;50.284;19.310;2022-07-15T02:38:49;16.90;;;13.57;;
17818;SDS011;9034;50.284;19.310;2022-07-15T02:39:53;18.70;;;12.82;;
17818;SDS011;9034;50.284;19.310;2022-07-15T02:40:56;17.73;;;12.52;;
17818;SDS011;9034;50.284;19.310;2022-07-15T02:42:02;16.15;;;11.43;;
17818;SDS011;9034;50.284;19.310;2022-07-15T02:43:06;16.98;;;11.90;;
17818;SDS011;9034;50.284;19.310;2022-07-15T02:44:11;20.08;;;12.30;;
17818;SDS011;9034;50.284;19.310;2022-07-15T02:45:21;15.02;;;11.63;;
17818;SDS011;9034;50.284;19.310;2022-07-15T02:46:25;14.75;;;11.93;;
17818;SDS011;9034;50.284;19.310;2022-07-15T02:47:30;17.00;;;12.40;;
17818;SDS011;9034;50.284;19.310;2022-07-15T02:48:34;20.48;;;12.82;;
17818;SDS011;9034;50.284;19.310;2022-07-15T02:49:38;18.08;;;12.40;;
17818;SDS011;9034;50.284;19.310;2022-07-15T02:50:42;21.35;;;12.35;;
17818;SDS011;9034;50.284;19.310;2022-07-15T02:51:50;16.90;;;12.20;;
17818;SDS011;9034;50.284;19.310;2022-07-15T02:52:56;17.63;;;12.63;;
17818;SDS011;9034;50.284;19.310;2022-07-15T02:54:01;21.63;;;12.68;;
17818;SDS011;9034;50.284;19.310;2022-07-15T02:55:07;17.63;;;11.65;;
17818;SDS011;9034;50.284;19.310;2022-07-15T02:56:12;15.45;;;12.18;;
17818;SDS011;9034;50.284;19.310;2022-07-15T02:57:16;16.85;;;11.70;;
17818;SDS011;9034;50.284;19.310;2022-07-15T02:58:20;18.40;;;11.68;;
17818;SDS011;9034;50.284;19.310;2022-07-15T02:59:24;15.63;;;11.88;;
17818;SDS011;9034;50.284;19.310;2022-07-15T03:00:30;18.55;;;11.90;;
17818;SDS011;9034;50.284;19.310;2022-07-15T03:01:38;14.48;;;11.25;;
17818;SDS011;9034;50.284;19.310;2022-07-15T03:02:42;17.45;;;11.27;;
17818;SDS011;9034;50.284;19.310;2022-07-15T03:03:47;13.60;;;11.23;;
17818;SDS011;9034;50.284;19.310;2022-07-15T03:04:56;18.08;;;11.63;;
17818;SDS011;9034;50.284;19.310;2022-07-15T03:05:59;16.60;;;10.57;;
17818;SDS011;9034;50.284;19.310;2022-07-15T03:07:05;14.55;;;10.48;;
17818;SDS011;9034;50.284;19.310;2022-07-15T03:08:08;16.23;;;11.57;;
17818;SDS011;9034;50.284;19.310;2022-07-15T03:09:16;12.35;;;10.60;;
17818;SDS011;9034;50.284;19.310;2022-07-15T03:10:19;14.13;;;11.02;;
17818;SDS011;9034;50.284;19.310;2022-07-15T03:11:23;15.98;;;11.38;;
17818;SDS011;9034;50.284;19.310;2022-07-15T03:12:27;13.18;;;11.15;;
17818;SDS011;9034;50.284;19.310;2022-07-15T03:13:31;16.50;;;10.60;;
17818;SDS011;9034;50.284;19.310;2022-07-15T03:14:35;16.02;;;11.55;;
17818;SDS011;9034;50.284;19.310;2022-07-15T03:15:39;15.38;;;9.95;;
17818;SDS011;9034;50.284;19.310;2022-07-15T03:16:43;11.88;;;10.45;;
17818;SDS011;9034;50.284;19.310;2022-07-15T03:17:46;15.18;;;10.95;;
17818;SDS011;9034;50.284;19.310;2022-07-15T03:18:50;14.43;;;9.75;;
17818;SDS011;9034;50.284;19.310;2022-07-15T03:19:54;13.60;;;9.60;;
17818;SDS011;9034;50.284;19.310;2022-07-15T03:20:59;15.43;;;10.95;;
17818;SDS011;9034;50.284;19.310;2022-07-15T03:22:03;11.90;;;10.05;;
17818;SDS011;9034;50.284;19.310;2022-07-15T03:23:11;16.05;;;11.23;;
17818;SDS011;9034;50.284;19.310;2022-07-15T03:24:15;12.07;;;9.95;;
17818;SDS011;9034;50.284;19.310;2022-07-15T03:25:19;14.80;;;10.63;;
17818;SDS011;9034;50.284;19.310;2022-07-15T03:26:23;13.90;;;9.88;;
17818;SDS011;9034;50.284;19.310;2022-07-15T03:27:27;14.63;;;10.35;;
17818;SDS011;9034;50.284;19.310;2022-07-15T03:28:30;18.77;;;11.25;;
17818;SDS011;9034;50.284;19.310;2022-07-15T03:29:35;16.60;;;11.25;;
17818;SDS011;9034;50.284;19.310;2022-07-15T03:30:38;12.32;;;10.52;;
17818;SDS011;9034;50.284;19.310;2022-07-15T03:31:45;12.77;;;10.52;;
17818;SDS011;9034;50.284;19.310;2022-07-15T03:32:55;15.02;;;11.63;;
17818;SDS011;9034;50.284;19.310;2022-07-15T03:33:59;14.82;;;11.45;;
17818;SDS011;9034;50.284;19.310;2022-07-15T03:35:03;15.50;;;11.32;;
17818;SDS011;9034;50.284;19.310;2022-07-15T03:36:12;19.10;;;11.10;;
17818;SDS011;9034;50.284;19.310;2022-07-15T03:37:15;16.75;;;11.90;;
17818;SDS011;9034;50.284;19.310;2022-07-15T03:38:20;21.48;;;11.80;;
17818;SDS011;9034;50.284;19.310;2022-07-15T03:39:25;16.92;;;12.15;;
17818;SDS011;9034;50.284;19.310;2022-07-15T03:40:28;15.75;;;11.55;;
17818;SDS011;9034;50.284;19.310;2022-07-15T03:41:33;20.17;;;12.63;;
17818;SDS011;9034;50.284;19.310;2022-07-15T03:42:36;14.85;;;11.68;;
17818;SDS011;9034;50.284;19.310;2022-07-15T03:43:40;14.15;;;10.88;;
17818;SDS011;9034;50.284;19.310;2022-07-15T03:44:44;14.30;;;11.27;;
17818;SDS011;9034;50.284;19.310;2022-07-15T03:45:48;16.90;;;11.95;;
17818;SDS011;9034;50.284;19.310;2022-07-15T03:46:53;13.85;;;10.95;;
17818;SDS011;9034;50.284;19.310;2022-07-15T03:47:59;13.60;;;10.93;;
17818;SDS011;9034;50.284;19.310;2022-07-15T03:49:07;15.75;;;10.60;;
17818;SDS011;9034;50.284;19.310;2022-07-15T03:50:12;15.07;;;10.63;;
17818;SDS011;9034;50.284;19.310;2022-07-15T03:51:16;15.25;;;10.13;;
17818;SDS011;9034;50.284;19.310;2022-07-15T03:52:20;14.80;;;10.25;;
17818;SDS011;9034;50.284;19.310;2022-07-15T03:53:24;15.13;;;10.40;;
17818;SDS011;9034;50.284;19.310;2022-07-15T03:54:28;17.77;;;10.30;;
17818;SDS011;9034;50.284;19.310;2022-07-15T03:55:32;17.35;;;9.57;;
17818;SDS011;9034;50.284;19.310;2022-07-15T03:56:36;12.85;;;9.48;;
17818;SDS011;9034;50.284;19.310;2022-07-15T03:57:39;16.17;;;9.27;;
17818;SDS011;9034;50.284;19.310;2022-07-15T03:58:44;11.15;;;8.73;;
17818;SDS011;9034;50.284;19.310;2022-07-15T03:59:48;13.07;;;9.57;;
17818;SDS011;9034;50.284;19.310;2022-07-15T04:00:52;14.95;;;8.68;;
17818;SDS011;9034;50.284;19.310;2022-07-15T04:01:55;13.00;;;8.63;;
17818;SDS011;9034;50.284;19.310;2022-07-15T04:02:59;13.07;;;9.10;;
17818;SDS011;9034;50.284;19.310;2022-07-15T04:04:04;11.60;;;8.50;;
17818;SDS011;9034;50.284;19.310;2022-07-15T04:05:07;8.90;;;7.60;;
17818;SDS011;9034;50.284;19.310;2022-07-15T04:06:12;9.82;;;7.78;;
17818;SDS011;9034;50.284;19.310;2022-07-15T04:07:15;12.07;;;7.00;;
17818;SDS011;9034;50.284;19.310;2022-07-15T04:08:19;9.13;;;7.05;;
17818;SDS011;9034;50.284;19.310;2022-07-15T04:09:24;9.07;;;6.65;;
17818;SDS011;9034;50.284;19.310;2022-07-15T04:10:28;11.52;;;7.03;;
17818;SDS011;9034;50.284;19.310;2022-07-15T04:11:31;8.60;;;7.07;;
17818;SDS011;9034;50.284;19.310;2022-07-15T04:12:36;9.98;;;7.38;;
17818;SDS011;9034;50.284;19.310;2022-07-15T04:13:46;10.75;;;7.30;;
17818;SDS011;9034;50.284;19.310;2022-07-15T04:14:50;15.90;;;7.57;;
17818;SDS011;9034;50.284;19.310;2022-07-15T04:15:53;9.77;;;7.85;;
17818;SDS011;9034;50.284;19.310;2022-07-15T04:16:58;8.57;;;7.65;;
17818;SDS011;9034;50.284;19.310;2022-07-15T04:18:07;10.80;;;7.40;;
17818;SDS011;9034;50.284;19.310;2022-07-15T04:19:14;13.48;;;8.00;;
17818;SDS011;9034;50.284;19.310;2022-07-15T04:20:18;10.80;;;8.30;;
17818;SDS011;9034;50.284;19.310;2022-07-15T04:21:26;16.17;;;8.65;;
17818;SDS011;9034;50.284;19.310;2022-07-15T04:22:29;10.50;;;8.38;;
17818;SDS011;9034;50.284;19.310;2022-07-15T04:23:34;11.23;;;8.20;;
17818;SDS011;9034;50.284;19.310;2022-07-15T04:24:38;10.00;;;8.00;;
17818;SDS011;9034;50.284;19.310;2022-07-15T04:25:46;8.63;;;7.38;;
17818;SDS011;9034;50.284;19.310;2022-07-15T04:26:51;11.15;;;7.57;;
17818;SDS011;9034;50.284;19.310;2022-07-15T04:27:55;9.60;;;6.45;;
17818;SDS011;9034;50.284;19.310;2022-07-15T04:29:04;10.30;;;6.75;;
17818;SDS011;9034;50.284;19.310;2022-07-15T04:30:10;7.35;;;6.57;;
17818;SDS011;9034;50.284;19.310;2022-07-15T04:31:21;9.95;;;6.40;;
17818;SDS011;9034;50.284;19.310;2022-07-15T04:32:32;10.15;;;5.90;;
17818;SDS011;9034;50.284;19.310;2022-07-15T04:33:36;9.07;;;5.60;;
17818;SDS011;9034;50.284;19.310;2022-07-15T04:34:41;7.10;;;4.97;;
17818;SDS011;9034;50.284;19.310;2022-07-15T04:35:44;7.03;;;5.25;;
17818;SDS011;9034;50.284;19.310;2022-07-15T04:36:48;7.90;;;5.28;;
17818;SDS011;9034;50.284;19.310;2022-07-15T04:37:52;7.90;;;4.82;;
17818;SDS011;9034;50.284;19.310;2022-07-15T04:38:56;7.90;;;4.63;;
17818;SDS011;9034;50.284;19.310;2022-07-15T04:40:01;7.80;;;4.60;;
17818;SDS011;9034;50.284;19.310;2022-07-15T04:41:06;8.93;;;5.53;;
17818;SDS011;9034;50.284;19.310;2022-07-15T04:42:10;7.35;;;4.60;;
17818;SDS011;9034;50.284;19.310;2022-07-15T04:43:13;6.22;;;4.65;;
17818;SDS011;9034;50.284;19.310;2022-07-15T04:44:20;5.65;;;3.95;;
17818;SDS011;9034;50.284;19.310;2022-07-15T04:45:24;5.85;;;4.30;;
17818;SDS011;9034;50.284;19.310;2022-07-15T04:46:29;5.38;;;4.10;;
17818;SDS011;9034;50.284;19.310;2022-07-15T04:47:50;5.30;;;4.15;;
17818;SDS011;9034;50.284;19.310;2022-07-15T04:49:02;5.30;;;4.35;;
17818;SDS011;9034;50.284;19.310;2022-07-15T04:50:24;6.28;;;4.90;;
17818;SDS011;9034;50.284;19.310;2022-07-15T04:51:45;8.57;;;5.28;;
17818;SDS011;9034;50.284;19.310;2022-07-15T04:52:50;4.93;;;4.53;;
17818;SDS011;9034;50.284;19.310;2022-07-15T04:53:54;5.13;;;4.20;;
17818;SDS011;9034;50.284;19.310;2022-07-15T04:54:58;6.72;;;4.10;;
17818;SDS011;9034;50.284;19.310;2022-07-15T04:56:03;6.25;;;4.30;;
17818;SDS011;9034;50.284;19.310;2022-07-15T04:57:09;8.13;;;4.05;;
17818;SDS011;9034;50.284;19.310;2022-07-15T04:58:14;10.18;;;4.57;;
17818;SDS011;9034;50.284;19.310;2022-07-15T04:59:18;7.72;;;4.43;;
17818;SDS011;9034;50.284;19.310;2022-07-15T05:00:25;9.95;;;4.88;;
17818;SDS011;9034;50.284;19.310;2022-07-15T05:01:28;5.38;;;4.72;;
17818;SDS011;9034;50.284;19.310;2022-07-15T05:02:33;6.35;;;4.80;;
17818;SDS011;9034;50.284;19.310;2022-07-15T05:03:37;7.50;;;4.72;;
17818;SDS011;9034;50.284;19.310;2022-07-15T05:04:42;4.93;;;4.43;;
17818;SDS011;9034;50.284;19.310;2022-07-15T05:05:46;9.60;;;5.05;;
17818;SDS011;9034;50.284;19.310;2022-07-15T05:06:53;6.00;;;4.70;;
17818;SDS011;9034;50.284;19.310;2022-07-15T05:07:56;6.20;;;4.68;;
17818;SDS011;9034;50.284;19.310;2022-07-15T05:09:17;8.82;;;4.90;;
17818;SDS011;9034;50.284;19.310;2022-07-15T05:10:22;5.60;;;4.43;;
17818;SDS011;9034;50.284;19.310;2022-07-15T05:11:35;5.85;;;3.92;;
17818;SDS011;9034;50.284;19.310;2022-07-15T05:12:39;8.07;;;4.45;;
17818;SDS011;9034;50.284;19.310;2022-07-15T05:13:43;6.25;;;3.60;;
17818;SDS011;9034;50.284;19.310;2022-07-15T05:14:47;4.78;;;3.20;;
17818;SDS011;9034;50.284;19.310;2022-07-15T05:15:50;4.53;;;3.58;;
17818;SDS011;9034;50.284;19.310;2022-07-15T05:16:57;6.20;;;3.70;;
17818;SDS011;9034;50.284;19.310;2022-07-15T05:18:00;5.25;;;2.85;;
17818;SDS011;9034;50.284;19.310;2022-07-15T05:19:04;6.90;;;3.05;;
17818;SDS011;9034;50.284;19.310;2022-07-15T05:20:09;5.82;;;3.00;;
17818;SDS011;9034;50.284;19.310;2022-07-15T05:21:13;6.68;;;3.50;;
17818;SDS011;9034;50.284;19.310;2022-07-15T05:22:25;2.60;;;2.33;;
17818;SDS011;9034;50.284;19.310;2022-07-15T05:23:29;3.67;;;2.72;;
17818;SDS011;9034;50.284;19.310;2022-07-15T05:24:37;2.92;;;2.60;;
17818;SDS011;9034;50.284;19.310;2022-07-15T05:25:40;3.33;;;2.40;;
17818;SDS011;9034;50.284;19.310;2022-07-15T05:26:46;2.88;;;2.53;;
17818;SDS011;9034;50.284;19.310;2022-07-15T05:27:50;4.18;;;2.58;;
17818;SDS011;9034;50.284;19.310;2022-07-15T05:28:53;5.10;;;3.15;;
17818;SDS011;9034;50.284;19.310;2022-07-15T05:29:58;5.70;;;2.45;;
17818;SDS011;9034;50.284;19.310;2022-07-15T05:31:01;6.05;;;3.03;;
17818;SDS011;9034;50.284;19.310;2022-07-15T05:32:05;4.82;;;2.45;;
17818;SDS011;9034;50.284;19.310;2022-07-15T05:33:09;6.93;;;3.97;;
17818;SDS011;9034;50.284;19.310;2022-07-15T05:34:13;2.80;;;2.42;;
17818;SDS011;9034;50.284;19.310;2022-07-15T05:35:16;3.53;;;2.45;;
17818;SDS011;9034;50.284;19.310;2022-07-15T05:36:21;4.50;;;2.13;;
17818;SDS011;9034;50.284;19.310;2022-07-15T05:37:25;3.20;;;2.50;;
17818;SDS011;9034;50.284;19.310;2022-07-15T05:38:30;5.55;;;2.42;;
17818;SDS011;9034;50.284;19.310;2022-07-15T05:39:35;3.65;;;2.10;;
17818;SDS011;9034;50.284;19.310;2022-07-15T05:41:04;4.35;;;2.25;;
17818;SDS011;9034;50.284;19.310;2022-07-15T05:42:11;2.80;;;2.15;;
17818;SDS011;9034;50.284;19.310;2022-07-15T05:43:14;3.25;;;2.15;;
17818;SDS011;9034;50.284;19.310;2022-07-15T05:44:20;2.27;;;2.07;;
17818;SDS011;9034;50.284;19.310;2022-07-15T05:45:24;3.05;;;2.08;;
17818;SDS011;9034;50.284;19.310;2022-07-15T05:46:35;4.75;;;2.22;;
17818;SDS011;9034;50.284;19.310;2022-07-15T05:47:45;2.47;;;2.28;;
17818;SDS011;9034;50.284;19.310;2022-07-15T05:48:52;3.23;;;2.57;;
17818;SDS011;9034;50.284;19.310;2022-07-15T05:49:58;2.50;;;2.00;;
17818;SDS011;9034;50.284;19.310;2022-07-15T05:51:05;4.30;;;2.00;;
17818;SDS011;9034;50.284;19.310;2022-07-15T05:52:09;6.23;;;1.87;;
17818;SDS011;9034;50.284;19.310;2022-07-15T05:53:12;5.87;;;2.20;;
17818;SDS011;9034;50.284;19.310;2022-07-15T05:54:18;3.73;;;2.20;;
17818;SDS011;9034;50.284;19.310;2022-07-15T05:55:21;4.03;;;1.90;;
17818;SDS011;9034;50.284;19.310;2022-07-15T05:56:26;4.73;;;2.10;;
17818;SDS011;9034;50.284;19.310;2022-07-15T05:57:32;4.03;;;2.63;;
17818;SDS011;9034;50.284;19.310;2022-07-15T05:58:45;3.67;;;2.07;;
17818;SDS011;9034;50.284;19.310;2022-07-15T05:59:49;15.00;;;3.07;;
17818;SDS011;9034;50.284;19.310;2022-07-15T06:00:53;3.60;;;2.63;;
17818;SDS011;9034;50.284;19.310;2022-07-15T06:02:00;2.50;;;2.30;;
17818;SDS011;9034;50.284;19.310;2022-07-15T06:03:08;2.17;;;1.97;;
17818;SDS011;9034;50.284;19.310;2022-07-15T06:04:18;1.90;;;1.80;;
17818;SDS011;9034;50.284;19.310;2022-07-15T06:05:22;5.13;;;2.03;;
17818;SDS011;9034;50.284;19.310;2022-07-15T06:06:30;5.93;;;2.10;;
17818;SDS011;9034;50.284;19.310;2022-07-15T06:07:35;2.40;;;2.20;;
17818;SDS011;9034;50.284;19.310;2022-07-15T06:08:39;2.93;;;2.50;;
17818;SDS011;9034;50.284;19.310;2022-07-15T06:09:46;3.73;;;2.00;;
17818;SDS011;9034;50.284;19.310;2022-07-15T06:10:54;4.70;;;2.10;;
17818;SDS011;9034;50.284;19.310;2022-07-15T06:11:59;2.63;;;1.93;;
17818;SDS011;9034;50.284;19.310;2022-07-15T06:13:05;1.77;;;1.67;;
17818;SDS011;9034;50.284;19.310;2022-07-15T06:14:10;4.00;;;1.77;;
17818;SDS011;9034;50.284;19.310;2022-07-15T06:15:14;7.30;;;2.87;;
17818;SDS011;9034;50.284;19.310;2022-07-15T06:16:18;2.77;;;2.00;;
17818;SDS011;9034;50.284;19.310;2022-07-15T06:17:22;2.67;;;1.80;;
17818;SDS011;9034;50.284;19.310;2022-07-15T06:18:29;2.20;;;2.10;;
17818;SDS011;9034;50.284;19.310;2022-07-15T06:19:32;3.23;;;1.77;;
17818;SDS011;9034;50.284;19.310;2022-07-15T06:20:37;4.17;;;2.40;;
17818;SDS011;9034;50.284;19.310;2022-07-15T06:21:40;3.50;;;2.33;;
17818;SDS011;9034;50.284;19.310;2022-07-15T06:22:45;2.53;;;2.17;;
17818;SDS011;9034;50.284;19.310;2022-07-15T06:23:48;3.53;;;2.17;;
17818;SDS011;9034;50.284;19.310;2022-07-15T06:24:52;3.43;;;1.90;;
17818;SDS011;9034;50.284;19.310;2022-07-15T06:25:56;3.57;;;1.90;;
17818;SDS011;9034;50.284;19.310;2022-07-15T06:27:01;9.03;;;2.77;;
17818;SDS011;9034;50.284;19.310;2022-07-15T06:28:07;2.80;;;2.17;;
17818;SDS011;9034;50.284;19.310;2022-07-15T06:29:10;4.53;;;2.60;;